createdAt,value
2023-03-31T10:51:30.602Z,11.70
2023-03-31T10:54:34.209Z,11.90
2023-03-31T10:57:54.489Z,10.20
2023-03-31T11:01:10.962Z,12.00
2023-03-31T11:04:48.326Z,12.70
2023-03-31T11:13:33.662Z,16.00
2023-03-31T11:18:03.248Z,15.50
2023-03-31T11:24:44.724Z,14.00
2023-03-31T11:28:20.976Z,11.20
2023-03-31T11:31:41.418Z,14.00
2023-03-31T11:35:05.365Z,14.10
2023-03-31T11:38:31.735Z,14.00
2023-03-31T11:47:56.264Z,13.90
2023-03-31T11:51:04.690Z,13.70
2023-03-31T11:59:16.809Z,13.70
2023-03-31T12:02:28.764Z,13.50
2023-03-31T12:05:38.196Z,13.40
2023-03-31T12:08:51.963Z,13.40
2023-03-31T12:12:04.312Z,13.40
2023-03-31T12:15:20.920Z,13.30
2023-03-31T12:18:28.182Z,13.30
2023-03-31T12:21:35.481Z,13.30
2023-03-31T12:24:39.748Z,13.70
2023-03-31T12:27:47.290Z,13.30
2023-03-31T12:30:54.957Z,13.30
2023-03-31T12:34:03.969Z,13.20
2023-03-31T12:37:33.960Z,13.20
2023-03-31T12:40:56.577Z,13.10
2023-03-31T12:44:32.975Z,13.10
2023-03-31T12:47:54.614Z,13.00
2023-03-31T12:51:21.999Z,12.90
2023-03-31T12:55:16.281Z,12.90
2023-03-31T12:58:40.938Z,12.80
2023-03-31T13:04:19.206Z,12.80
2023-03-31T13:07:42.467Z,12.90
2023-03-31T13:10:59.765Z,12.90
2023-03-31T13:14:07.855Z,12.90
2023-03-31T13:17:25.680Z,13.00
2023-03-31T13:20:38.803Z,13.10
2023-03-31T13:23:48.186Z,13.10
2023-03-31T13:26:54.906Z,13.10
2023-03-31T13:29:59.184Z,13.00
2023-03-31T13:33:11.085Z,13.40
2023-03-31T13:36:51.233Z,13.00
2023-03-31T13:40:37.624Z,13.00
2023-03-31T13:44:06.758Z,12.90
2023-03-31T13:47:54.624Z,12.90
2023-03-31T13:51:32.882Z,12.90
2023-03-31T13:55:17.974Z,12.90
2023-03-31T13:59:09.202Z,12.90
2023-03-31T14:02:51.289Z,12.90
2023-03-31T14:06:04.477Z,12.90
2023-03-31T14:17:31.655Z,12.40
2023-03-31T14:20:51.723Z,12.40
2023-03-31T14:24:11.302Z,14.30
2023-03-31T14:27:41.334Z,12.30
2023-03-31T14:34:37.355Z,12.40
2023-03-31T14:47:33.126Z,11.80
2023-03-31T14:50:37.699Z,11.70
2023-03-31T14:53:41.302Z,11.70
2023-03-31T14:59:55.753Z,12.10
2023-03-31T15:03:03.843Z,12.10
2023-03-31T15:06:08.530Z,12.00
2023-03-31T15:09:20.957Z,12.10
2023-03-31T15:12:25.210Z,12.10
2023-03-31T15:15:28.574Z,12.40
2023-03-31T15:18:33.568Z,12.10
2023-03-31T15:21:39.731Z,12.20
2023-03-31T15:24:43.330Z,12.20
2023-03-31T15:27:52.891Z,12.20
2023-03-31T15:31:08.976Z,12.10
2023-03-31T15:34:20.968Z,12.10
2023-03-31T15:37:29.174Z,12.10
2023-03-31T15:40:40.994Z,12.00
2023-03-31T15:47:01.621Z,12.00
2023-03-31T15:50:16.394Z,12.00
2023-03-31T15:53:36.219Z,11.80
2023-03-31T15:56:46.231Z,11.70
2023-03-31T15:59:55.865Z,12.40
2023-03-31T16:03:03.910Z,11.60
2023-03-31T16:06:19.646Z,11.50
2023-03-31T16:09:28.511Z,11.50
2023-03-31T16:18:51.458Z,11.70
2023-03-31T16:25:12.811Z,11.80
2023-03-31T16:28:21.428Z,11.70
2023-03-31T16:31:37.948Z,11.60
2023-03-31T16:34:56.917Z,11.60
2023-03-31T16:38:03.166Z,11.70
2023-03-31T16:41:08.245Z,9.80
2023-03-31T16:47:27.721Z,14.20
2023-03-31T17:09:04.589Z,11.30
2023-03-31T17:39:57.225Z,10.30
2023-03-31T19:06:12.533Z,9.70
2023-03-31T19:27:46.254Z,9.20
2023-03-31T19:33:53.669Z,9.00
2023-03-31T19:43:09.910Z,8.90
2023-03-31T20:23:08.838Z,8.40
2023-03-31T20:29:19.397Z,8.40
2023-03-31T20:41:38.614Z,8.20
2023-03-31T20:44:43.366Z,8.20
2023-03-31T20:53:58.088Z,8.20
2023-03-31T21:00:12.437Z,11.20
2023-03-31T21:06:21.156Z,11.10
2023-03-31T21:12:28.922Z,8.00
2023-03-31T21:21:43.146Z,7.80
2023-03-31T21:40:14.350Z,7.80
2023-03-31T22:01:47.762Z,7.50
2023-03-31T22:32:31.188Z,7.30
2023-03-31T22:38:38.572Z,7.20
